Time;durP1;ratioP1;P1;durP2;ratioP2;P2;SDS_P1;SDS_P2;PMS_P1;PMS_P2;Temp;Humidity;BMP_temperature;BMP_pressure;BME280_temperature;BME280_humidity;BME280_pressure;Samples;Min_cycle;Max_cycle;Signal;HPM_P1;HPM_P2
2022/04/10 00:01:34;;;;;;;3.00;2.63;;;5.90;73.70;;;;;;4984371;28;20446;-42
2022/04/10 00:04:01;;;;;;;8.37;3.00;;;5.90;73.80;;;;;;4970444;28;20473;-42
2022/04/10 00:06:28;;;;;;;3.43;3.20;;;5.90;73.80;;;;;;4979883;28;20466;-42
2022/04/10 00:08:54;;;;;;;3.83;2.77;;;5.90;73.80;;;;;;4984300;28;20464;-42
2022/04/10 00:11:21;;;;;;;3.30;3.00;;;5.90;73.80;;;;;;4982425;28;20547;-42
2022/04/10 00:13:48;;;;;;;3.27;3.00;;;5.90;73.80;;;;;;4979854;28;20494;-42
2022/04/10 00:16:15;;;;;;;2.93;2.67;;;5.90;73.10;;;;;;4982942;28;20465;-42
2022/04/10 00:18:41;;;;;;;3.37;3.07;;;5.90;73.00;;;;;;4981324;28;20458;-42
2022/04/10 00:21:08;;;;;;;2.97;2.77;;;5.80;73.10;;;;;;4983851;28;20465;-42
2022/04/10 00:23:35;;;;;;;4.07;3.10;;;5.80;73.30;;;;;;4983353;28;20499;-42
2022/04/10 00:26:02;;;;;;;3.00;2.70;;;5.80;73.40;;;;;;4985348;28;21248;-42
2022/04/10 00:28:29;;;;;;;6.10;2.97;;;5.90;73.00;;;;;;4963785;28;20458;-42
2022/04/10 00:30:55;;;;;;;3.53;3.23;;;5.80;73.20;;;;;;4982062;28;20488;-42
2022/04/10 00:33:23;;;;;;;3.80;2.83;;;5.80;73.20;;;;;;4982954;28;20603;-42
2022/04/10 00:35:50;;;;;;;3.13;2.83;;;5.80;73.10;;;;;;4982135;28;20465;-42
2022/04/10 00:38:16;;;;;;;3.20;3.00;;;5.80;73.30;;;;;;4981905;28;20686;-42
2022/04/10 00:40:43;;;;;;;4.63;3.27;;;5.80;73.30;;;;;;4980960;28;20449;-42
2022/04/10 00:43:10;;;;;;;4.90;2.97;;;5.80;73.20;;;;;;4983258;28;20466;-42
2022/04/10 00:45:37;;;;;;;4.00;3.30;;;5.70;73.60;;;;;;4982567;28;20471;-42
2022/04/10 00:48:03;;;;;;;3.70;3.40;;;5.70;73.40;;;;;;4979079;28;20454;-42
2022/04/10 00:50:31;;;;;;;4.17;3.60;;;5.70;73.30;;;;;;4981843;28;20712;-42
2022/04/10 00:52:59;;;;;;;3.83;3.53;;;5.70;73.50;;;;;;4974481;28;20917;-42
2022/04/10 00:55:26;;;;;;;4.20;3.50;;;5.60;73.70;;;;;;4983291;28;20889;-42
2022/04/10 00:57:53;;;;;;;5.43;2.73;;;5.60;73.70;;;;;;4980917;28;20534;-43
2022/04/10 01:00:20;;;;;;;3.67;3.37;;;5.60;73.60;;;;;;4982721;28;20980;-42
2022/04/10 01:02:46;;;;;;;4.13;3.70;;;5.70;73.20;;;;;;4981709;28;20462;-42
2022/04/10 01:05:13;;;;;;;3.80;3.40;;;5.60;73.30;;;;;;4984147;28;20552;-42
2022/04/10 01:07:41;;;;;;;3.27;2.97;;;5.60;73.40;;;;;;4980939;28;20553;-42
2022/04/10 01:10:08;;;;;;;3.77;2.80;;;5.60;73.60;;;;;;4981055;28;20489;-42
2022/04/10 01:12:35;;;;;;;3.83;3.40;;;5.50;73.60;;;;;;4981298;28;20493;-43
2022/04/10 01:15:04;;;;;;;4.03;3.70;;;5.50;74.00;;;;;;4977496;28;21021;-43
2022/04/10 01:17:31;;;;;;;4.43;3.33;;;5.50;73.90;;;;;;4980689;28;20458;-43
2022/04/10 01:19:58;;;;;;;3.57;3.23;;;5.50;74.10;;;;;;4981468;28;20470;-43
2022/04/10 01:22:32;;;;;;;3.87;3.57;;;5.50;74.30;;;;;;4975106;28;20468;-43
2022/04/10 01:25:02;;;;;;;4.87;3.80;;;5.40;74.30;;;;;;4980488;28;20465;-42
2022/04/10 01:27:37;;;;;;;4.40;3.00;;;5.40;74.40;;;;;;4979674;28;20485;-42
2022/04/10 01:30:05;;;;;;;4.53;4.17;;;5.40;74.40;;;;;;4982701;28;20468;-43
2022/04/10 01:32:32;;;;;;;5.10;3.80;;;5.30;74.70;;;;;;4983321;28;20538;-43
2022/04/10 01:35:01;;;;;;;4.00;3.70;;;5.30;74.90;;;;;;4965629;28;20466;-43
2022/04/10 01:37:29;;;;;;;4.00;3.60;;;5.30;74.90;;;;;;4978909;28;20891;-42
2022/04/10 01:39:55;;;;;;;7.07;3.97;;;5.30;74.90;;;;;;4982476;28;20545;-42
2022/04/10 01:42:22;;;;;;;7.93;4.10;;;5.30;74.90;;;;;;4983376;28;20473;-42
2022/04/10 01:44:49;;;;;;;4.57;4.17;;;5.30;75.10;;;;;;4967421;28;20457;-42
2022/04/10 01:47:16;;;;;;;4.20;3.80;;;5.30;75.40;;;;;;4983655;28;20465;-42
2022/04/10 01:49:42;;;;;;;5.40;3.97;;;5.20;75.40;;;;;;4964267;28;20824;-42
2022/04/10 01:52:09;;;;;;;5.60;4.57;;;5.30;75.20;;;;;;4982315;28;20496;-42
2022/04/10 01:54:36;;;;;;;4.40;3.97;;;5.20;75.00;;;;;;4979227;28;20458;-42
2022/04/10 01:57:05;;;;;;;3.63;3.33;;;5.20;75.10;;;;;;4981024;28;20727;-41
2022/04/10 01:59:31;;;;;;;4.60;3.97;;;5.20;75.30;;;;;;4981735;28;20463;-43
2022/04/10 02:01:58;;;;;;;4.87;3.73;;;5.20;75.20;;;;;;4980979;28;20457;-42
2022/04/10 02:04:25;;;;;;;3.93;3.63;;;5.20;75.00;;;;;;4961148;28;20930;-42
2022/04/10 02:06:52;;;;;;;4.30;3.90;;;5.10;75.30;;;;;;4981189;28;20484;-42
2022/04/10 02:09:19;;;;;;;5.80;4.47;;;5.10;75.40;;;;;;4981720;28;20457;-42
2022/04/10 02:11:45;;;;;;;9.73;4.70;;;5.00;75.40;;;;;;4981973;28;20457;-42
2022/04/10 02:14:13;;;;;;;4.37;3.97;;;5.00;75.50;;;;;;4987352;28;20492;-46
2022/04/10 02:16:40;;;;;;;5.13;4.10;;;5.00;75.40;;;;;;4998111;28;20460;-46
2022/04/10 02:19:07;;;;;;;5.73;4.53;;;5.00;75.50;;;;;;4997716;28;20458;-47
2022/04/10 02:21:34;;;;;;;10.73;4.27;;;5.00;75.70;;;;;;4998966;28;20445;-47
2022/04/10 02:24:00;;;;;;;3.93;3.63;;;5.00;75.60;;;;;;4994642;28;20504;-46
2022/04/10 02:26:27;;;;;;;5.10;4.70;;;5.00;75.50;;;;;;4996007;28;20461;-47
2022/04/10 02:28:54;;;;;;;4.57;4.07;;;5.00;75.50;;;;;;4996127;28;20497;-47
2022/04/10 02:31:21;;;;;;;6.43;3.80;;;5.00;75.40;;;;;;4994381;28;20470;-47
2022/04/10 02:33:47;;;;;;;4.80;4.40;;;5.00;75.60;;;;;;4997337;28;20995;-47
2022/04/10 02:36:16;;;;;;;6.00;4.63;;;5.00;75.50;;;;;;4998541;28;20453;-47
2022/04/10 02:38:43;;;;;;;4.47;3.83;;;4.90;75.70;;;;;;4997122;28;20457;-46
2022/04/10 02:41:11;;;;;;;5.67;4.10;;;4.90;75.80;;;;;;4981612;28;20833;-47
2022/04/10 02:43:39;;;;;;;8.30;4.93;;;4.90;75.90;;;;;;5001372;28;21118;-47
2022/04/10 02:46:06;;;;;;;4.97;4.00;;;4.90;75.80;;;;;;5002936;28;20591;-46
2022/04/10 02:48:34;;;;;;;6.43;5.23;;;4.90;75.80;;;;;;5001401;28;20458;-46
2022/04/10 02:51:02;;;;;;;3.93;3.53;;;4.90;75.70;;;;;;4994821;28;20556;-47
2022/04/10 02:53:29;;;;;;;5.03;4.50;;;4.80;75.80;;;;;;5001777;28;20493;-47
2022/04/10 02:55:57;;;;;;;5.63;4.23;;;4.80;75.80;;;;;;4997329;28;20902;-47
2022/04/10 02:58:23;;;;;;;9.27;4.87;;;4.70;76.00;;;;;;4979325;28;20468;-47
2022/04/10 03:00:50;;;;;;;8.70;4.40;;;4.70;75.90;;;;;;5002925;28;20540;-47
2022/04/10 03:03:18;;;;;;;5.97;3.90;;;4.70;75.80;;;;;;5004055;28;20551;-47
2022/04/10 03:05:45;;;;;;;7.23;4.27;;;4.70;75.90;;;;;;4986115;28;20512;-47
2022/04/10 03:08:11;;;;;;;8.30;4.67;;;4.70;75.90;;;;;;4984233;28;20500;-46
2022/04/10 03:10:38;;;;;;;5.20;4.00;;;4.60;75.90;;;;;;5003399;28;20499;-47
2022/04/10 03:13:05;;;;;;;4.40;4.10;;;4.60;76.20;;;;;;5001129;28;20548;-47
2022/04/10 03:15:32;;;;;;;4.87;4.37;;;4.60;76.10;;;;;;5000960;28;20481;-47
2022/04/10 03:17:59;;;;;;;4.30;3.90;;;4.60;76.00;;;;;;4987679;28;20467;-46
2022/04/10 03:20:25;;;;;;;4.80;4.40;;;4.60;76.00;;;;;;5002255;28;20943;-47
2022/04/10 03:22:52;;;;;;;4.70;4.17;;;4.60;76.10;;;;;;5001178;28;20478;-46
2022/04/10 03:25:19;;;;;;;4.27;3.70;;;4.60;76.00;;;;;;4997328;28;20525;-46
2022/04/10 03:27:45;;;;;;;3.93;3.63;;;4.60;76.20;;;;;;4999497;28;20539;-47
2022/04/10 03:30:12;;;;;;;4.03;3.50;;;4.60;75.70;;;;;;4999639;28;20471;-47
2022/04/10 03:32:41;;;;;;;4.30;3.73;;;4.60;75.60;;;;;;5000255;28;20886;-47
2022/04/10 03:35:08;;;;;;;7.23;5.17;;;4.60;75.50;;;;;;5003777;28;20484;-47
2022/04/10 03:37:35;;;;;;;8.23;3.70;;;4.60;75.50;;;;;;4983447;28;20486;-47
2022/04/10 03:40:04;;;;;;;4.40;4.00;;;4.60;75.20;;;;;;4995240;28;20457;-47
2022/04/10 03:42:39;;;;;;;6.50;3.50;;;4.60;74.70;;;;;;4999143;28;20450;-48
2022/04/10 03:45:08;;;;;;;4.30;3.77;;;4.70;74.80;;;;;;4996192;28;20525;-46
2022/04/10 03:47:35;;;;;;;4.33;3.93;;;4.60;74.90;;;;;;4999068;28;20492;-47
2022/04/10 03:50:03;;;;;;;5.57;3.97;;;4.60;74.90;;;;;;5001463;28;20533;-47
2022/04/10 03:52:30;;;;;;;4.57;3.30;;;4.60;75.20;;;;;;5002700;28;20824;-47
2022/04/10 03:54:57;;;;;;;4.67;3.60;;;4.60;74.70;;;;;;4985200;28;20454;-47
2022/04/10 03:57:24;;;;;;;4.63;3.30;;;4.60;73.90;;;;;;4999734;28;20457;-47
2022/04/10 03:59:50;;;;;;;3.77;3.33;;;4.60;74.40;;;;;;4998911;28;20460;-46
2022/04/10 04:02:17;;;;;;;4.53;3.67;;;4.60;74.60;;;;;;4999431;28;20454;-46
2022/04/10 04:04:45;;;;;;;4.43;3.77;;;4.60;74.50;;;;;;4994738;28;20530;-47
2022/04/10 04:07:12;;;;;;;5.97;4.57;;;4.60;74.80;;;;;;5000893;28;20468;-46
2022/04/10 04:09:39;;;;;;;3.90;3.60;;;4.60;75.00;;;;;;5000098;28;20540;-47
2022/04/10 04:12:07;;;;;;;7.73;4.33;;;4.60;75.00;;;;;;4999568;28;21041;-46
2022/04/10 04:14:35;;;;;;;6.03;3.60;;;4.60;75.10;;;;;;4999271;28;20500;-46
2022/04/10 04:17:02;;;;;;;6.93;4.20;;;4.60;74.70;;;;;;4998580;28;20451;-47
2022/04/10 04:19:28;;;;;;;4.10;3.63;;;4.50;74.90;;;;;;4980442;28;20466;-47
2022/04/10 04:21:55;;;;;;;3.80;3.40;;;4.50;75.10;;;;;;5000920;28;20461;-47
2022/04/10 04:24:22;;;;;;;5.27;3.90;;;4.50;75.30;;;;;;4995410;28;20508;-47
2022/04/10 04:26:48;;;;;;;4.33;3.10;;;4.50;75.10;;;;;;4992383;28;20469;-47
2022/04/10 04:29:15;;;;;;;4.33;3.83;;;4.40;75.10;;;;;;5003259;28;20461;-47
2022/04/10 04:31:42;;;;;;;4.00;3.60;;;4.40;75.00;;;;;;4998375;28;20485;-47
2022/04/10 04:34:11;;;;;;;5.63;4.57;;;4.40;75.20;;;;;;4995456;28;20494;-47
2022/04/10 04:36:38;;;;;;;4.60;4.20;;;4.30;75.30;;;;;;5000982;28;20463;-47
2022/04/10 04:39:05;;;;;;;5.80;3.87;;;4.30;75.30;;;;;;4995491;28;20493;-47
2022/04/10 04:41:31;;;;;;;10.43;4.13;;;4.30;75.60;;;;;;4998582;28;20812;-47
2022/04/10 04:43:58;;;;;;;6.63;3.60;;;4.30;75.70;;;;;;4987539;28;20595;-47
2022/04/10 04:46:25;;;;;;;5.83;3.77;;;4.30;75.60;;;;;;4982557;28;20529;-47
2022/04/10 04:48:52;;;;;;;7.03;3.63;;;4.20;75.60;;;;;;4996536;28;20466;-47
2022/04/10 04:51:19;;;;;;;4.83;3.70;;;4.20;75.50;;;;;;4998868;28;20457;-47
2022/04/10 04:53:46;;;;;;;4.67;4.17;;;4.20;75.60;;;;;;4998416;28;20529;-47
2022/04/10 04:56:13;;;;;;;3.90;3.60;;;4.20;75.80;;;;;;4977171;28;20456;-47
2022/04/10 04:58:40;;;;;;;4.17;3.77;;;4.20;75.90;;;;;;4999444;28;20469;-47
2022/04/10 05:01:06;;;;;;;3.90;3.27;;;4.10;76.10;;;;;;4992131;28;20463;-47
2022/04/10 05:03:34;;;;;;;5.60;3.70;;;4.10;76.00;;;;;;4998193;28;20526;-47
2022/04/10 05:06:09;;;;;;;4.73;4.17;;;4.20;75.80;;;;;;4994928;28;20547;-47
2022/04/10 05:08:36;;;;;;;5.10;3.90;;;4.20;76.10;;;;;;4993922;28;21422;-47
2022/04/10 05:11:03;;;;;;;3.93;3.60;;;4.20;76.20;;;;;;4996759;28;20461;-47
2022/04/10 05:13:30;;;;;;;5.03;4.23;;;4.30;76.10;;;;;;4995501;28;21186;-47
2022/04/10 05:15:56;;;;;;;4.47;3.67;;;4.30;76.10;;;;;;4995398;28;20461;-47
2022/04/10 05:18:23;;;;;;;3.57;3.23;;;4.30;76.30;;;;;;4980466;28;20469;-47
2022/04/10 05:20:50;;;;;;;5.70;4.17;;;4.40;76.00;;;;;;4998196;28;20553;-47
2022/04/10 05:23:19;;;;;;;4.20;3.80;;;4.40;75.80;;;;;;4999962;28;20466;-47
2022/04/10 05:25:46;;;;;;;6.60;3.60;;;4.50;75.60;;;;;;5001964;28;20473;-47
2022/04/10 05:28:14;;;;;;;5.20;4.40;;;4.60;75.60;;;;;;5002153;28;20466;-46
2022/04/10 05:30:42;;;;;;;5.97;4.30;;;4.60;75.60;;;;;;4993806;28;20508;-47
2022/04/10 05:33:09;;;;;;;4.53;3.57;;;4.60;75.70;;;;;;4998535;28;20489;-47
2022/04/10 05:35:37;;;;;;;3.80;3.50;;;4.70;75.20;;;;;;4983583;28;20453;-46
2022/04/10 05:38:04;;;;;;;5.03;4.03;;;4.70;75.10;;;;;;4978955;28;20461;-47
2022/04/10 05:40:31;;;;;;;5.07;3.60;;;4.70;75.10;;;;;;4982606;28;20472;-47
2022/04/10 05:42:58;;;;;;;6.37;3.57;;;4.70;74.90;;;;;;4996694;28;20468;-47
2022/04/10 05:45:24;;;;;;;3.73;3.37;;;4.80;75.00;;;;;;4986522;28;20460;-47
2022/04/10 05:47:51;;;;;;;4.87;3.30;;;4.80;75.10;;;;;;4996320;28;20462;-47
2022/04/10 05:50:18;;;;;;;4.53;3.83;;;4.80;75.10;;;;;;4998840;28;20474;-47
2022/04/10 05:52:47;;;;;;;4.43;4.03;;;4.80;75.10;;;;;;4993983;28;20485;-47
2022/04/10 05:55:17;;;;;;;5.10;3.50;;;4.90;75.40;;;;;;4997179;28;20878;-47
2022/04/10 05:57:44;;;;;;;5.93;3.70;;;4.90;75.30;;;;;;4988024;28;20458;-47
2022/04/10 06:00:14;;;;;;;6.10;3.73;;;5.00;75.00;;;;;;4997044;28;20494;-47
2022/04/10 06:02:42;;;;;;;5.33;3.80;;;5.00;74.60;;;;;;4982205;28;20506;-47
2022/04/10 06:05:09;;;;;;;5.57;3.80;;;5.00;74.30;;;;;;4992486;28;20443;-47
2022/04/10 06:07:36;;;;;;;4.10;3.70;;;5.00;74.30;;;;;;4997409;28;20465;-47
2022/04/10 06:10:04;;;;;;;8.40;4.40;;;5.10;74.40;;;;;;4999883;28;21202;-47
2022/04/10 06:12:30;;;;;;;8.90;4.30;;;5.10;74.10;;;;;;4999304;28;20509;-47
2022/04/10 06:14:57;;;;;;;5.30;3.83;;;5.20;74.00;;;;;;4995056;28;20516;-47
2022/04/10 06:17:24;;;;;;;4.87;4.40;;;5.20;74.20;;;;;;4984379;28;20561;-47
2022/04/10 06:19:51;;;;;;;8.30;3.47;;;5.20;74.20;;;;;;4998630;28;20465;-47
2022/04/10 06:22:17;;;;;;;4.73;3.70;;;5.20;74.20;;;;;;4996090;28;20469;-47
2022/04/10 06:24:44;;;;;;;6.03;3.70;;;5.30;74.00;;;;;;4992057;28;20476;-47
2022/04/10 06:27:11;;;;;;;4.63;4.10;;;5.30;73.90;;;;;;4995906;28;20453;-47
2022/04/10 06:29:38;;;;;;;5.17;4.17;;;5.40;73.80;;;;;;4995073;28;20533;-47
2022/04/10 06:32:05;;;;;;;3.60;3.30;;;5.40;74.00;;;;;;4998995;28;20486;-47
2022/04/10 06:34:32;;;;;;;5.90;3.77;;;5.40;74.10;;;;;;4990734;28;20567;-47
2022/04/10 06:36:59;;;;;;;4.60;4.20;;;5.50;74.00;;;;;;4995039;28;20453;-48
2022/04/10 06:39:25;;;;;;;5.47;4.97;;;5.60;73.90;;;;;;4991986;28;20454;-48
2022/04/10 06:41:52;;;;;;;5.00;4.30;;;5.60;73.90;;;;;;4993363;28;20458;-48
2022/04/10 06:44:19;;;;;;;4.67;4.27;;;5.70;73.30;;;;;;4993585;28;20470;-46
2022/04/10 06:46:46;;;;;;;4.67;4.27;;;5.70;73.10;;;;;;4994459;28;20457;-46
2022/04/10 06:49:13;;;;;;;8.27;3.87;;;5.70;73.30;;;;;;4978114;28;20529;-46
2022/04/10 06:51:40;;;;;;;9.03;4.60;;;5.80;73.40;;;;;;4997926;28;20455;-46
2022/04/10 06:54:07;;;;;;;5.20;4.40;;;5.80;73.30;;;;;;4998800;28;20524;-45
2022/04/10 06:56:34;;;;;;;5.83;4.30;;;5.90;72.90;;;;;;4984537;28;20453;-46
2022/04/10 06:59:00;;;;;;;5.57;4.53;;;5.90;72.10;;;;;;4980662;28;20461;-46
2022/04/10 07:01:27;;;;;;;4.77;4.37;;;5.90;72.00;;;;;;4996159;28;20459;-47
2022/04/10 07:03:54;;;;;;;5.13;4.30;;;5.90;72.50;;;;;;4992220;28;20465;-46
2022/04/10 07:06:21;;;;;;;6.10;4.80;;;5.80;72.70;;;;;;4995581;28;20480;-46
2022/04/10 07:08:47;;;;;;;7.00;5.70;;;5.80;73.20;;;;;;4999178;28;20536;-46
2022/04/10 07:11:14;;;;;;;7.37;5.20;;;5.90;73.50;;;;;;4994074;28;20481;-47
2022/04/10 07:13:41;;;;;;;5.57;5.00;;;5.90;74.00;;;;;;4985356;28;20496;-47
2022/04/10 07:16:08;;;;;;;6.33;4.67;;;6.00;74.20;;;;;;4994149;28;20465;-46
2022/04/10 07:18:35;;;;;;;4.17;3.60;;;6.10;74.90;;;;;;4996183;28;20482;-46
2022/04/10 07:21:03;;;;;;;4.20;3.47;;;6.20;74.30;;;;;;4990534;28;20519;-47
2022/04/10 07:23:46;;;;;;;6.07;3.90;;;6.20;74.20;;;;;;4995802;28;20458;-47
2022/04/10 07:26:14;;;;;;;8.30;3.80;;;6.30;73.80;;;;;;4997038;28;20486;-46
2022/04/10 07:28:41;;;;;;;6.10;4.57;;;6.40;74.30;;;;;;4996923;28;20541;-47
2022/04/10 07:31:09;;;;;;;4.80;3.73;;;6.50;74.00;;;;;;4998902;28;20505;-46
2022/04/10 07:33:37;;;;;;;7.13;5.00;;;6.60;74.60;;;;;;4992292;28;20462;-47
2022/04/10 07:36:04;;;;;;;7.20;4.60;;;6.80;73.70;;;;;;4997142;28;20961;-47
2022/04/10 07:38:31;;;;;;;4.70;3.73;;;7.00;73.20;;;;;;4996565;28;20533;-47
2022/04/10 07:40:58;;;;;;;5.37;3.70;;;7.10;72.30;;;;;;4999252;28;20455;-46
2022/04/10 07:43:25;;;;;;;5.13;4.57;;;7.20;72.00;;;;;;4995285;28;20469;-46
2022/04/10 07:48:42;;;;;;;4.50;3.87;;;7.40;70.50;;;;;;4998906;28;20474;-46
2022/04/10 07:51:09;;;;;;;7.10;4.27;;;7.60;71.80;;;;;;4993031;28;20492;-46
2022/04/10 07:53:36;;;;;;;9.00;4.90;;;7.80;70.40;;;;;;4995964;28;20469;-46
2022/04/10 07:56:03;;;;;;;6.67;4.00;;;8.00;69.90;;;;;;4994916;28;20484;-46
2022/04/10 07:58:30;;;;;;;6.83;3.60;;;8.20;68.70;;;;;;4975752;28;20467;-46
2022/04/10 08:00:57;;;;;;;4.63;3.70;;;8.40;67.40;;;;;;4994203;28;20476;-46
2022/04/10 08:03:26;;;;;;;6.20;4.00;;;8.50;67.40;;;;;;4996713;28;20447;-46
2022/04/10 08:05:53;;;;;;;5.63;4.43;;;8.60;67.10;;;;;;4995764;28;20554;-46
2022/04/10 08:08:20;;;;;;;4.73;3.77;;;8.70;65.50;;;;;;4993603;28;20466;-46
2022/04/10 08:10:46;;;;;;;4.37;3.97;;;8.80;65.30;;;;;;4995268;28;20461;-46
2022/04/10 08:13:13;;;;;;;5.03;4.00;;;8.80;65.50;;;;;;4994604;28;21270;-46
2022/04/10 08:15:40;;;;;;;5.47;4.10;;;8.80;65.80;;;;;;4993422;28;20530;-47
2022/04/10 08:18:10;;;;;;;11.23;4.60;;;8.80;66.10;;;;;;4996596;28;20486;-46
2022/04/10 08:20:37;;;;;;;5.90;3.80;;;8.80;66.40;;;;;;4978712;28;20461;-46
2022/04/10 08:23:04;;;;;;;4.63;2.93;;;8.90;65.20;;;;;;4979834;28;20453;-47
2022/04/10 08:25:30;;;;;;;4.00;3.30;;;9.00;64.30;;;;;;4983609;28;20467;-46
2022/04/10 08:27:57;;;;;;;6.13;3.17;;;9.00;64.10;;;;;;4993815;28;20471;-46
2022/04/10 08:30:24;;;;;;;4.40;3.10;;;8.90;63.90;;;;;;4992103;28;20527;-46
2022/04/10 08:32:51;;;;;;;5.03;3.80;;;8.90;64.40;;;;;;4992147;28;20482;-46
2022/04/10 08:35:18;;;;;;;4.23;3.07;;;8.90;64.40;;;;;;4992524;28;20554;-46
2022/04/10 08:37:45;;;;;;;4.60;3.43;;;8.80;64.60;;;;;;4995653;28;20459;-46
2022/04/10 08:40:12;;;;;;;3.13;2.93;;;8.90;64.50;;;;;;4992800;28;20454;-46
2022/04/10 08:42:39;;;;;;;7.23;3.87;;;8.80;64.00;;;;;;4991750;28;20466;-46
2022/04/10 08:45:07;;;;;;;4.93;3.60;;;8.80;64.30;;;;;;4995070;28;20489;-46
2022/04/10 08:47:37;;;;;;;6.00;4.37;;;8.70;64.70;;;;;;4991471;28;20470;-46
2022/04/10 08:50:04;;;;;;;4.40;3.63;;;8.60;65.10;;;;;;4993210;28;20472;-46
2022/04/10 08:52:31;;;;;;;4.17;3.77;;;8.50;65.30;;;;;;4974420;28;20470;-46
2022/04/10 08:54:58;;;;;;;6.40;3.77;;;8.50;65.70;;;;;;4994834;28;20565;-46
2022/04/10 08:57:25;;;;;;;4.57;3.97;;;8.50;66.40;;;;;;4993377;28;20463;-46
2022/04/10 08:59:55;;;;;;;3.77;3.13;;;8.70;66.40;;;;;;4990995;28;20461;-46
2022/04/10 09:02:22;;;;;;;8.23;4.10;;;8.90;66.80;;;;;;4993840;28;20462;-47
2022/04/10 09:04:49;;;;;;;3.57;3.27;;;9.10;65.20;;;;;;4990697;28;21079;-46
2022/04/10 09:07:16;;;;;;;5.27;3.13;;;9.10;65.00;;;;;;4997161;28;20468;-46
2022/04/10 09:09:53;;;;;;;5.50;3.40;;;9.00;65.20;;;;;;4992780;28;20454;-46
2022/04/10 09:12:20;;;;;;;3.87;3.23;;;9.00;64.70;;;;;;4971164;28;20482;-46
2022/04/10 09:14:49;;;;;;;4.90;3.60;;;8.90;64.40;;;;;;4995648;28;20577;-46
2022/04/10 09:17:22;;;;;;;5.20;3.37;;;8.90;65.30;;;;;;4990388;28;20458;-47
2022/04/10 09:19:53;;;;;;;4.67;3.37;;;8.90;65.40;;;;;;4975616;28;21316;-46
2022/04/10 09:22:36;;;;;;;3.67;3.10;;;8.90;65.20;;;;;;4993644;28;20526;-46
2022/04/10 09:25:07;;;;;;;6.20;2.83;;;8.90;64.90;;;;;;4989347;28;20901;-46
2022/04/10 09:27:36;;;;;;;3.70;2.63;;;8.90;64.90;;;;;;4992578;28;20466;-46
2022/04/10 09:30:07;;;;;;;5.20;3.20;;;9.00;65.30;;;;;;4973117;28;20466;-47
2022/04/10 09:32:40;;;;;;;4.83;3.43;;;9.00;65.50;;;;;;4981866;28;20485;-47
2022/04/10 09:35:09;;;;;;;3.90;2.83;;;9.10;64.80;;;;;;4993748;28;20520;-47
2022/04/10 09:37:52;;;;;;;5.90;3.70;;;9.40;64.20;;;;;;4989169;28;20522;-47
2022/04/10 09:40:29;;;;;;;7.03;3.40;;;9.90;63.50;;;;;;4990672;28;20454;-46
2022/04/10 09:43:06;;;;;;;4.50;3.20;;;10.60;62.00;;;;;;4989523;28;20529;-46
2022/04/10 09:45:40;;;;;;;5.97;4.30;;;11.10;60.20;;;;;;4987835;28;20479;-47
2022/04/10 09:48:18;;;;;;;7.93;4.70;;;11.60;58.90;;;;;;4990138;28;20964;-47
2022/04/10 09:50:46;;;;;;;5.03;4.53;;;11.90;57.80;;;;;;4989752;28;20518;-46
2022/04/10 09:53:12;;;;;;;4.93;3.37;;;12.00;56.70;;;;;;4992204;28;20545;-46
2022/04/10 09:55:41;;;;;;;4.73;3.10;;;12.00;56.70;;;;;;4992171;28;20489;-46
2022/04/10 09:58:10;;;;;;;3.60;2.43;;;11.90;56.80;;;;;;4971815;28;20966;-46
2022/04/10 10:00:39;;;;;;;4.03;2.80;;;11.70;56.40;;;;;;4990594;28;20463;-47
2022/04/10 10:03:08;;;;;;;3.37;2.20;;;11.60;55.70;;;;;;4987632;28;20856;-46
2022/04/10 10:05:35;;;;;;;2.97;2.27;;;11.60;54.70;;;;;;4988537;28;20568;-46
2022/04/10 10:08:04;;;;;;;6.10;2.23;;;11.50;54.20;;;;;;4964198;28;20455;-46
2022/04/10 10:10:33;;;;;;;3.00;2.70;;;11.50;53.80;;;;;;4989120;28;20838;-46
2022/04/10 10:13:07;;;;;;;3.63;2.70;;;11.50;54.40;;;;;;4989111;28;21043;-46
2022/04/10 10:15:38;;;;;;;2.63;2.17;;;11.70;53.80;;;;;;4991380;28;20488;-46
2022/04/10 10:18:10;;;;;;;4.20;2.67;;;11.90;54.00;;;;;;4978550;28;20463;-46
2022/04/10 10:20:38;;;;;;;3.30;2.63;;;12.30;54.20;;;;;;4990330;28;20468;-47
2022/04/10 10:23:09;;;;;;;3.30;2.50;;;12.90;52.30;;;;;;4971176;28;20510;-46
2022/04/10 10:26:10;;;;;;;6.17;2.30;;;13.40;51.10;;;;;;4988419;28;20503;-46
2022/04/10 10:28:59;;;;;;;4.10;2.83;;;14.10;46.70;;;;;;4988056;28;20469;-46
2022/04/10 10:31:35;;;;;;;6.60;3.20;;;14.30;47.60;;;;;;4988544;28;20534;-46
2022/04/10 10:34:07;;;;;;;3.63;2.37;;;14.10;48.80;;;;;;4988750;28;20467;-47
2022/04/10 10:36:34;;;;;;;5.57;3.20;;;14.30;49.20;;;;;;4987106;28;20538;-46
2022/04/10 10:39:04;;;;;;;3.10;2.73;;;14.80;49.00;;;;;;4988403;28;20480;-46
2022/04/10 10:41:40;;;;;;;4.70;2.73;;;15.40;47.70;;;;;;4987064;28;20828;-46
2022/04/10 10:44:25;;;;;;;4.43;3.30;;;15.70;46.20;;;;;;4987795;28;20461;-46
2022/04/10 10:47:00;;;;;;;3.00;2.70;;;16.00;45.00;;;;;;4988667;28;20458;-46
2022/04/10 10:49:30;;;;;;;6.87;3.90;;;16.40;45.50;;;;;;4984107;28;20455;-46
2022/04/10 10:52:09;;;;;;;3.03;2.70;;;16.80;45.30;;;;;;4988485;28;20469;-46
2022/04/10 10:54:51;;;;;;;6.83;4.00;;;17.00;43.20;;;;;;4989340;28;20504;-47
2022/04/10 10:57:32;;;;;;;4.77;3.00;;;17.20;42.40;;;;;;4987433;28;20460;-46
2022/04/10 11:00:16;;;;;;;5.47;3.27;;;17.20;43.20;;;;;;4983296;28;20869;-46
2022/04/10 11:02:58;;;;;;;7.30;3.80;;;17.30;43.70;;;;;;4986583;28;20461;-46
2022/04/10 11:05:25;;;;;;;4.30;3.13;;;17.30;43.40;;;;;;4989948;28;20471;-46
2022/04/10 11:08:09;;;;;;;5.27;2.97;;;17.50;43.20;;;;;;4987874;28;20960;-46
2022/04/10 11:10:50;;;;;;;4.13;3.47;;;17.50;42.40;;;;;;4991266;28;20552;-46
2022/04/10 11:13:19;;;;;;;4.63;3.30;;;17.20;41.50;;;;;;4984716;28;20468;-46
2022/04/10 11:15:52;;;;;;;4.90;3.93;;;16.70;41.30;;;;;;4988278;28;20577;-46
2022/04/10 11:18:29;;;;;;;5.20;3.63;;;16.20;42.60;;;;;;4985372;28;20452;-46
2022/04/10 11:20:58;;;;;;;9.23;3.60;;;15.60;44.70;;;;;;4990769;28;20941;-46
2022/04/10 11:23:30;;;;;;;6.90;3.30;;;15.00;45.20;;;;;;4985322;28;20496;-46
2022/04/10 11:26:02;;;;;;;10.03;4.13;;;14.40;46.30;;;;;;4982651;28;20531;-46
2022/04/10 11:28:31;;;;;;;4.20;3.40;;;14.00;47.50;;;;;;4983928;28;20980;-47
2022/04/10 11:31:01;;;;;;;4.40;3.60;;;13.70;49.10;;;;;;4967639;28;20497;-46
2022/04/10 11:33:48;;;;;;;6.20;3.97;;;13.50;49.60;;;;;;4982231;28;20466;-46
2022/04/10 11:36:17;;;;;;;6.00;4.50;;;13.50;51.00;;;;;;4984007;28;20518;-46
2022/04/10 11:39:10;;;;;;;3.90;3.47;;;13.80;50.70;;;;;;4984656;28;20546;-46
2022/04/10 11:41:38;;;;;;;4.90;4.07;;;14.10;49.70;;;;;;4986205;28;20464;-46
2022/04/10 11:44:08;;;;;;;6.57;4.37;;;14.20;49.40;;;;;;4983313;28;20465;-45
2022/04/10 11:46:36;;;;;;;4.97;3.80;;;14.20;48.80;;;;;;4984511;28;20477;-46
2022/04/10 11:49:03;;;;;;;7.43;4.67;;;14.20;49.10;;;;;;4986299;28;20530;-46
2022/04/10 11:51:30;;;;;;;6.40;4.43;;;14.20;49.00;;;;;;4983928;28;20467;-46
2022/04/10 11:54:00;;;;;;;7.63;4.37;;;14.20;49.80;;;;;;4981491;28;21029;-46
2022/04/10 11:56:27;;;;;;;4.30;3.90;;;14.30;49.50;;;;;;4984132;28;20495;-46
2022/04/10 11:58:54;;;;;;;4.30;3.77;;;14.40;47.40;;;;;;4986098;28;20459;-46
2022/04/10 12:01:22;;;;;;;4.70;4.23;;;14.30;48.30;;;;;;4984357;28;20836;-46
2022/04/10 12:03:49;;;;;;;4.13;3.83;;;14.30;48.00;;;;;;4969336;28;20464;-46
2022/04/10 12:06:21;;;;;;;10.13;4.67;;;14.10;49.60;;;;;;4984764;28;20491;-47
2022/04/10 12:08:48;;;;;;;6.43;4.00;;;14.20;49.10;;;;;;4982272;28;20540;-46
2022/04/10 12:11:15;;;;;;;6.83;4.10;;;14.10;48.80;;;;;;4982509;28;20463;-46
2022/04/10 12:13:42;;;;;;;5.50;4.00;;;14.00;49.00;;;;;;4985334;28;20960;-46
2022/04/10 12:16:18;;;;;;;4.57;3.87;;;13.90;48.90;;;;;;4984450;28;20499;-46
2022/04/10 12:18:48;;;;;;;4.70;4.30;;;13.80;49.30;;;;;;4982938;28;20557;-46
2022/04/10 12:21:15;;;;;;;4.20;3.83;;;13.60;49.50;;;;;;4982614;28;20469;-46
2022/04/10 12:23:43;;;;;;;10.03;6.50;;;13.50;49.10;;;;;;4985230;28;20537;-46
2022/04/10 12:26:10;;;;;;;5.37;3.60;;;13.50;48.90;;;;;;4983775;28;20520;-46
2022/04/10 12:28:39;;;;;;;7.50;4.27;;;13.40;48.50;;;;;;4983484;28;20467;-46
2022/04/10 12:31:06;;;;;;;4.60;4.07;;;13.40;49.30;;;;;;4984229;28;20495;-46
2022/04/10 12:33:35;;;;;;;9.93;4.80;;;13.30;51.20;;;;;;4984496;28;20993;-46
2022/04/10 12:36:19;;;;;;;4.90;3.80;;;13.30;51.20;;;;;;4985176;28;20526;-46
2022/04/10 12:38:53;;;;;;;3.90;2.90;;;13.20;51.40;;;;;;4981338;28;20497;-46
2022/04/10 12:41:31;;;;;;;3.90;3.47;;;13.10;51.30;;;;;;4988188;28;20463;-46
2022/04/10 12:44:02;;;;;;;2.97;2.67;;;13.00;51.90;;;;;;4983682;28;20461;-46
2022/04/10 12:46:37;;;;;;;3.00;2.60;;;13.00;51.80;;;;;;4970136;28;20472;-46
2022/04/10 12:49:15;;;;;;;4.70;2.83;;;12.90;53.00;;;;;;4981784;28;20463;-46
2022/04/10 12:52:05;;;;;;;4.23;3.20;;;13.00;52.80;;;;;;4984731;28;20470;-46
2022/04/10 12:54:38;;;;;;;4.80;3.10;;;13.10;51.20;;;;;;4963869;28;20470;-46
2022/04/10 12:57:06;;;;;;;3.27;2.97;;;13.20;50.90;;;;;;4983284;28;20492;-47
2022/04/10 12:59:42;;;;;;;3.00;2.70;;;13.30;49.70;;;;;;4981375;28;20459;-47
2022/04/10 13:02:26;;;;;;;3.80;3.23;;;13.40;50.10;;;;;;4980024;28;20472;-47
2022/04/10 13:05:02;;;;;;;3.73;3.23;;;13.50;50.60;;;;;;4980535;28;20996;-47
2022/04/10 13:07:30;;;;;;;3.40;3.10;;;13.60;50.90;;;;;;4984229;28;20455;-46